18V weather

Platte Valley Airpark
Hudson, Colorado, United States

Public forecast

Using degrees Fahrenheit for public forecast. Weather courtesy of forecast.io.

Closest aviation weather report (METAR) to Platte Valley Airpark

Closest report is Denver International Airport, 14.4 nm (26.6 km) S. Retrieved 2019/11/14 19:53 UTC (24 minutes ago):

KDEN 141953Z 14004KT 10SM FEW160 FEW220 11/M05 A3024 RMK AO2 SLP227 T01111050

Closest aviation forecast (TAF) to Platte Valley Airpark

Closest forecast is Denver International Airport, 14.4 nm (26.6 km) S. Retrieved 2019/11/14 18:39 UTC (2 hours ago):

TAF KDEN 141737Z 1418/1524 20008KT P6SM FEW220 FM142000 14007KT P6SM FEW220 FM150100 17007KT P6SM SCT220 FM150400 21011KT P6SM SCT220 FM151500 VRB05KT P6SM SCT220 FM151900 11005KT P6SM FEW100 SCT220